createdAt,value
2022-11-24T00:01:16.358Z,94480.20
2022-11-24T00:03:45.560Z,94480.20
2022-11-24T00:06:15.766Z,94492.40
2022-11-24T00:08:45.811Z,94488.60
2022-11-24T00:11:20.104Z,94493.40
2022-11-24T00:13:47.375Z,94498.20
2022-11-24T00:16:16.485Z,94500.00
2022-11-24T00:18:45.685Z,94503.00
2022-11-24T00:21:14.347Z,94496.40
2022-11-24T00:23:41.277Z,94505.20
2022-11-24T00:26:22.935Z,94502.40
2022-11-24T00:28:52.280Z,94508.40
2022-11-24T00:31:24.890Z,94506.60
2022-11-24T00:33:55.457Z,94516.20
2022-11-24T00:36:25.905Z,94520.20
2022-11-24T00:38:58.698Z,94520.80
2022-11-24T00:41:26.717Z,94525.00
2022-11-24T00:43:53.840Z,94532.40
2022-11-24T00:46:22.218Z,94544.00
2022-11-24T00:48:49.359Z,94542.60
2022-11-24T00:51:18.049Z,94546.40
2022-11-24T00:53:45.082Z,94542.60
2022-11-24T00:56:13.201Z,94547.00
2022-11-24T00:58:39.930Z,94552.40
2022-11-24T01:01:09.113Z,94557.00
2022-11-24T01:03:36.152Z,94559.40
2022-11-24T01:06:06.108Z,94561.40
2022-11-24T01:08:34.051Z,94570.80
2022-11-24T01:11:10.875Z,94572.40
2022-11-24T01:13:38.271Z,94576.60
2022-11-24T01:16:05.346Z,94578.80
2022-11-24T01:18:32.083Z,94582.40
2022-11-24T01:20:59.088Z,94586.60
2022-11-24T01:23:25.779Z,94591.60
2022-11-24T01:25:52.461Z,94596.80
2022-11-24T01:28:19.145Z,94594.80
2022-11-24T01:30:47.355Z,94603.80
2022-11-24T01:33:14.039Z,94609.00
2022-11-24T01:35:40.741Z,94607.60
2022-11-24T01:38:07.401Z,94608.40
2022-11-24T01:40:34.141Z,94611.60
2022-11-24T01:43:00.846Z,94616.80
2022-11-24T01:45:35.771Z,94622.00
2022-11-24T01:48:08.489Z,94631.20
2022-11-24T01:50:36.545Z,94630.80
2022-11-24T01:53:04.812Z,94635.20
2022-11-24T01:55:36.991Z,94637.60
2022-11-24T01:58:17.444Z,94646.00
2022-11-24T02:00:45.790Z,94645.00
2022-11-24T02:03:16.386Z,94649.00
2022-11-24T02:06:12.105Z,94648.40
2022-11-24T02:08:51.306Z,94651.60
2022-11-24T02:11:20.270Z,94656.60
2022-11-24T02:13:48.069Z,94663.00
2022-11-24T02:16:14.876Z,94664.60
2022-11-24T02:18:42.852Z,94664.40
2022-11-24T02:21:13.763Z,94672.20
2022-11-24T02:24:23.252Z,94668.60
2022-11-24T02:26:52.140Z,94678.80
2022-11-24T02:29:20.514Z,94676.00
2022-11-24T02:31:55.174Z,94682.00
2022-11-24T02:34:21.821Z,94686.20
2022-11-24T02:36:48.557Z,94695.40
2022-11-24T02:39:16.201Z,94695.00
2022-11-24T02:41:49.732Z,94691.20
2022-11-24T02:44:20.486Z,94697.80
2022-11-24T02:46:47.146Z,94695.80
2022-11-24T02:49:13.812Z,94696.40
2022-11-24T02:51:41.049Z,94698.80
2022-11-24T02:54:07.866Z,94702.60
2022-11-24T02:56:34.592Z,94698.20
2022-11-24T02:59:01.619Z,94702.80
2022-11-24T03:01:28.374Z,94704.80
2022-11-24T03:03:55.088Z,94708.40
2022-11-24T03:06:21.767Z,94710.20
2022-11-24T03:08:48.420Z,94709.20
2022-11-24T03:11:15.170Z,94715.20
2022-11-24T03:13:41.866Z,94716.00
2022-11-24T03:16:10.493Z,94718.40
2022-11-24T03:18:37.292Z,94725.20
2022-11-24T03:21:04.127Z,94727.80
2022-11-24T03:23:30.800Z,94732.00
2022-11-24T03:26:12.260Z,94736.60
2022-11-24T03:28:39.242Z,94736.00
2022-11-24T03:31:07.749Z,94739.20
2022-11-24T03:33:35.338Z,94739.60
2022-11-24T03:36:03.684Z,94740.20
2022-11-24T03:38:30.421Z,94735.60
2022-11-24T03:40:57.133Z,94744.80
2022-11-24T03:43:23.862Z,94746.80
2022-11-24T03:45:50.982Z,94747.60
2022-11-24T03:48:21.305Z,94745.00
2022-11-24T03:50:59.641Z,94748.00
2022-11-24T03:53:29.030Z,94748.20
2022-11-24T03:55:56.634Z,94749.60
2022-11-24T03:58:24.143Z,94747.00
2022-11-24T04:00:53.372Z,94751.60
2022-11-24T04:03:21.123Z,94755.60
2022-11-24T04:05:48.548Z,94761.20
2022-11-24T04:08:16.145Z,94763.40
2022-11-24T04:10:43.246Z,94766.40
2022-11-24T04:13:18.717Z,94761.00
2022-11-24T04:15:45.351Z,94762.20
2022-11-24T04:18:13.426Z,94764.40
2022-11-24T04:20:41.734Z,94765.00
2022-11-24T04:23:09.678Z,94769.40
2022-11-24T04:25:37.238Z,94764.80
2022-11-24T04:28:04.303Z,94772.80
2022-11-24T04:30:31.311Z,94776.80
2022-11-24T04:32:58.090Z,94777.60
2022-11-24T04:35:25.317Z,94782.80
2022-11-24T04:37:51.874Z,94783.40
2022-11-24T04:40:19.639Z,94787.00
2022-11-24T04:42:56.462Z,94786.80
2022-11-24T04:45:24.007Z,94789.60
2022-11-24T04:47:50.642Z,94795.20
2022-11-24T04:50:18.017Z,94794.40
2022-11-24T04:52:44.722Z,94792.40
2022-11-24T04:55:11.453Z,94791.60
2022-11-24T04:57:38.224Z,94798.00
2022-11-24T05:00:06.179Z,94800.00
2022-11-24T05:02:32.824Z,94804.00
2022-11-24T05:04:59.436Z,94808.20
2022-11-24T05:07:26.064Z,94808.60
2022-11-24T05:10:11.492Z,94812.80
2022-11-24T05:12:39.469Z,94817.60
2022-11-24T05:15:07.084Z,94820.40
2022-11-24T05:17:37.430Z,94821.40
2022-11-24T05:20:06.949Z,94827.40
2022-11-24T05:22:34.586Z,94833.80
2022-11-24T05:25:01.913Z,94830.40
2022-11-24T05:27:28.624Z,94835.20
2022-11-24T05:29:55.353Z,94840.40
2022-11-24T05:32:21.918Z,94842.20
2022-11-24T05:34:48.825Z,94845.80
2022-11-24T05:37:15.567Z,94847.40
2022-11-24T05:39:42.381Z,94848.80
2022-11-24T05:42:27.834Z,94855.80
2022-11-24T05:44:54.613Z,94854.60
2022-11-24T05:47:21.756Z,94855.00
2022-11-24T05:49:48.381Z,94861.00
2022-11-24T05:52:16.048Z,94861.40
2022-11-24T05:54:42.756Z,94862.80
2022-11-24T05:57:09.420Z,94862.60
2022-11-24T05:59:36.003Z,94865.60
2022-11-24T06:02:03.020Z,94868.20
2022-11-24T06:04:29.797Z,94872.00
2022-11-24T06:06:56.378Z,94873.20
2022-11-24T06:09:22.937Z,94873.60
2022-11-24T06:11:49.545Z,94873.40
2022-11-24T06:14:16.147Z,94877.40
2022-11-24T06:16:42.939Z,94883.60
2022-11-24T06:19:11.210Z,94886.00
2022-11-24T06:21:38.242Z,94895.20
2022-11-24T06:24:05.802Z,94897.00
2022-11-24T06:26:32.635Z,94900.20
2022-11-24T06:28:59.611Z,94900.00
2022-11-24T06:31:26.318Z,94905.20
2022-11-24T06:33:53.245Z,94903.60
2022-11-24T06:36:20.411Z,94903.00
2022-11-24T06:38:47.233Z,94903.00
2022-11-24T06:41:15.956Z,94909.20
2022-11-24T06:43:42.934Z,94911.40
2022-11-24T06:46:09.917Z,94912.20
2022-11-24T06:48:36.809Z,94909.60
2022-11-24T06:51:11.000Z,94917.00
2022-11-24T06:53:38.470Z,94917.40
2022-11-24T06:56:16.189Z,94922.00
2022-11-24T06:58:49.344Z,94917.20
2022-11-24T07:01:19.047Z,94918.60
2022-11-24T07:03:46.497Z,94925.60
2022-11-24T07:06:13.166Z,94928.60
2022-11-24T07:08:39.994Z,94930.60
2022-11-24T07:11:15.530Z,94929.40
2022-11-24T07:13:44.045Z,94929.20
2022-11-24T07:16:19.419Z,94933.80
2022-11-24T07:18:48.438Z,94935.00
2022-11-24T07:21:16.598Z,94930.20
2022-11-24T07:23:43.648Z,94932.00
2022-11-24T07:26:11.178Z,94934.00
2022-11-24T07:28:38.720Z,94933.40
2022-11-24T07:31:12.489Z,94931.00
2022-11-24T07:33:39.806Z,94933.80
2022-11-24T07:36:08.425Z,94932.40
2022-11-24T07:38:36.117Z,94936.20
2022-11-24T07:41:07.994Z,94942.00
2022-11-24T07:43:37.138Z,94945.20
2022-11-24T07:46:06.902Z,94945.60
2022-11-24T07:48:34.731Z,94952.80
2022-11-24T07:51:03.113Z,94954.80
2022-11-24T07:53:29.763Z,94955.40
2022-11-24T07:56:01.801Z,94953.60
2022-11-24T07:58:34.462Z,94953.40
2022-11-24T08:01:16.397Z,94954.00
2022-11-24T08:03:44.447Z,94947.80
2022-11-24T08:06:25.128Z,94942.20
2022-11-24T08:08:55.394Z,94938.20
2022-11-24T08:11:22.528Z,94937.80
2022-11-24T08:13:49.849Z,94935.60
2022-11-24T08:16:18.958Z,94935.60
2022-11-24T08:18:54.663Z,94932.00
2022-11-24T08:21:25.482Z,94937.00
2022-11-24T08:23:56.445Z,94932.80
2022-11-24T08:26:25.183Z,94933.80
2022-11-24T08:28:58.901Z,94934.20
2022-11-24T08:31:33.156Z,94942.40
2022-11-24T08:34:02.290Z,94941.20
2022-11-24T08:36:29.087Z,94943.40
2022-11-24T08:38:58.297Z,94940.80
2022-11-24T08:41:26.246Z,94941.20
2022-11-24T08:43:54.758Z,94946.20
2022-11-24T08:46:21.999Z,94947.40
2022-11-24T08:48:51.175Z,94936.60
2022-11-24T08:51:22.108Z,94936.60
2022-11-24T08:53:49.160Z,94934.00
2022-11-24T08:56:15.942Z,94933.40
2022-11-24T08:58:42.941Z,94931.20
2022-11-24T09:01:16.246Z,94927.80
2022-11-24T09:03:49.969Z,94922.00
2022-11-24T09:06:22.767Z,94927.80
2022-11-24T09:08:59.867Z,94927.20
2022-11-24T09:11:27.539Z,94929.40
2022-11-24T09:13:55.520Z,94934.20
2022-11-24T09:16:26.524Z,94927.60
2022-11-24T09:19:02.257Z,94925.40
2022-11-24T09:21:31.040Z,94929.00
2022-11-24T09:23:58.009Z,94926.40
2022-11-24T09:26:34.614Z,94935.40
2022-11-24T09:29:04.201Z,94934.20
2022-11-24T09:31:35.428Z,94933.00
2022-11-24T09:34:04.994Z,94939.60
2022-11-24T09:36:34.833Z,94936.80
2022-11-24T09:39:01.433Z,94944.20
2022-11-24T09:41:52.624Z,94942.40
2022-11-24T09:44:40.724Z,94940.20
2022-11-24T09:47:26.494Z,94942.40
2022-11-24T09:50:04.262Z,94945.00
2022-11-24T09:53:05.652Z,94946.00
2022-11-24T09:55:50.623Z,94942.00
2022-11-24T09:58:55.681Z,94943.40
2022-11-24T10:01:38.122Z,94941.80
2022-11-24T10:04:18.603Z,94941.00
2022-11-24T10:07:13.345Z,94944.60
2022-11-24T10:10:48.263Z,94948.60
2022-11-24T10:14:01.906Z,94953.40
2022-11-24T10:16:58.575Z,94955.20
2022-11-24T10:19:37.233Z,94969.00
2022-11-24T10:22:06.751Z,94971.60
2022-11-24T10:24:57.708Z,94976.60
2022-11-24T10:27:38.017Z,94988.80
2022-11-24T10:30:18.592Z,94987.40
2022-11-24T10:33:12.353Z,94996.00
2022-11-24T10:35:54.002Z,94996.60
2022-11-24T10:38:30.562Z,95002.40
2022-11-24T10:41:07.908Z,95000.60
2022-11-24T10:43:34.978Z,95011.00
2022-11-24T10:46:19.937Z,95014.60
2022-11-24T10:49:05.544Z,95020.20
2022-11-24T10:51:57.999Z,95019.20
2022-11-24T10:54:24.581Z,95025.20
2022-11-24T10:56:53.901Z,95016.80
2022-11-24T10:59:29.402Z,95018.00
2022-11-24T11:01:56.413Z,95016.40
2022-11-24T11:04:35.387Z,95022.80
2022-11-24T11:07:18.823Z,95022.60
2022-11-24T11:09:47.504Z,95022.60
2022-11-24T11:12:47.390Z,95023.80
2022-11-24T11:15:34.630Z,95028.20
2022-11-24T11:18:01.785Z,95031.20
2022-11-24T11:20:37.583Z,95029.00
2022-11-24T11:23:26.911Z,95025.60
2022-11-24T11:26:19.132Z,95027.60
2022-11-24T11:34:54.499Z,95034.60
2022-11-24T11:37:25.846Z,95039.20
2022-11-24T11:39:54.925Z,95039.40
2022-11-24T11:45:28.276Z,95044.60
2022-11-24T11:48:21.311Z,95041.60
2022-11-24T11:51:24.520Z,95047.60
2022-11-24T11:54:16.118Z,95046.40
2022-11-24T11:56:46.178Z,95043.20
2022-11-24T11:59:39.167Z,95044.20
2022-11-24T12:02:57.004Z,95044.80
2022-11-24T12:05:51.012Z,95051.20
2022-11-24T12:08:31.336Z,95051.00
2022-11-24T12:11:26.898Z,95049.80
2022-11-24T12:14:24.176Z,95054.80
2022-11-24T12:17:40.721Z,95057.20
2022-11-24T12:20:28.420Z,95054.00
2022-11-24T12:23:58.750Z,95051.60
2022-11-24T12:27:10.033Z,95045.80
2022-11-24T12:30:08.902Z,95051.20
2022-11-24T12:33:15.332Z,95053.00
2022-11-24T12:35:46.731Z,95057.80
2022-11-24T12:39:16.661Z,95059.40
2022-11-24T12:42:12.045Z,95056.60
2022-11-24T12:45:28.739Z,95050.80
2022-11-24T12:48:15.462Z,95054.00
2022-11-24T12:50:44.407Z,95056.60
2022-11-24T12:53:13.959Z,95055.40
2022-11-24T12:55:42.259Z,95056.20
2022-11-24T12:58:36.838Z,95061.20
2022-11-24T13:01:21.817Z,95062.60
2022-11-24T13:04:05.107Z,95061.80
2022-11-24T13:06:49.433Z,95066.20
2022-11-24T13:09:17.219Z,95076.20
2022-11-24T13:11:46.088Z,95077.20
2022-11-24T13:14:29.205Z,95067.20
2022-11-24T13:17:28.573Z,95066.00
2022-11-24T13:19:50.782Z,95069.60
2022-11-24T13:22:25.219Z,95072.00
2022-11-24T13:25:15.103Z,95077.20
2022-11-24T13:27:57.539Z,95082.40
2022-11-24T13:30:33.628Z,95081.00
2022-11-24T13:33:16.406Z,95081.60
2022-11-24T13:36:02.300Z,95088.60
2022-11-24T13:38:49.266Z,95087.20
2022-11-24T13:41:31.799Z,95083.60
2022-11-24T13:44:13.832Z,95089.20
2022-11-24T13:47:06.172Z,95092.00
2022-11-24T13:49:46.458Z,95081.80
2022-11-24T13:52:58.125Z,95083.60
2022-11-24T13:55:33.946Z,95087.80
2022-11-24T13:58:31.790Z,95093.80
2022-11-24T14:01:12.673Z,95098.80
2022-11-24T14:04:28.228Z,95103.40
2022-11-24T14:06:57.683Z,95102.60
2022-11-24T14:10:06.494Z,95103.60
2022-11-24T14:12:34.074Z,95105.40
2022-11-24T14:15:22.565Z,95103.60
2022-11-24T14:17:49.191Z,95106.60
2022-11-24T14:20:25.971Z,95106.60
2022-11-24T14:22:53.972Z,95107.60
2022-11-24T14:25:30.375Z,95102.80
2022-11-24T14:27:57.288Z,95102.40
2022-11-24T14:30:25.785Z,95102.80
2022-11-24T14:33:02.087Z,95108.60
2022-11-24T14:35:34.490Z,95115.80
2022-11-24T14:38:06.769Z,95119.00
2022-11-24T14:40:51.417Z,95129.80
2022-11-24T14:43:33.379Z,95127.80
2022-11-24T14:46:09.328Z,95131.00
2022-11-24T14:48:47.055Z,95133.60
2022-11-24T14:51:24.269Z,95140.20
2022-11-24T14:54:00.907Z,95171.40
2022-11-24T14:56:38.886Z,95178.20
2022-11-24T14:59:24.608Z,95171.80
2022-11-24T15:01:51.571Z,95171.20
2022-11-24T15:07:24.688Z,95156.80
2022-11-24T15:09:59.207Z,95158.00
2022-11-24T15:12:39.856Z,95157.40
2022-11-24T15:15:15.799Z,95154.40
2022-11-24T15:17:52.742Z,95164.60
2022-11-24T15:20:42.282Z,95165.80
2022-11-24T15:23:29.878Z,95171.00
2022-11-24T15:25:58.329Z,95175.40
2022-11-24T15:28:28.099Z,95173.20
2022-11-24T15:31:00.958Z,95172.40
2022-11-24T15:33:27.959Z,95168.20
2022-11-24T15:35:55.084Z,95165.60
2022-11-24T15:38:22.489Z,95170.80
2022-11-24T15:40:52.624Z,95172.00
2022-11-24T15:43:39.752Z,95174.60
2022-11-24T15:46:08.360Z,95175.20
2022-11-24T15:48:35.365Z,95174.20
2022-11-24T15:51:05.962Z,95179.40
2022-11-24T15:53:38.961Z,95176.40
2022-11-24T15:56:12.763Z,95179.40
2022-11-24T15:58:39.418Z,95188.40
2022-11-24T16:01:06.774Z,95189.00
2022-11-24T16:03:49.470Z,95191.60
2022-11-24T16:06:25.329Z,95192.60
2022-11-24T16:08:54.125Z,95196.00
2022-11-24T16:11:22.411Z,95202.20
2022-11-24T16:13:52.983Z,95207.60
2022-11-24T16:16:21.933Z,95209.60
2022-11-24T16:18:48.751Z,95207.80
2022-11-24T16:21:15.407Z,95205.00
2022-11-24T16:23:42.086Z,95206.40
2022-11-24T16:26:09.976Z,95211.00
2022-11-24T16:28:36.632Z,95211.20
2022-11-24T16:31:03.330Z,95212.40
2022-11-24T16:33:30.221Z,95211.60
2022-11-24T16:35:56.921Z,95214.40
2022-11-24T16:38:23.739Z,95212.00
2022-11-24T16:40:56.430Z,95214.60
2022-11-24T16:43:24.469Z,95211.60
2022-11-24T16:46:25.375Z,95211.80
2022-11-24T16:48:55.067Z,95211.00
2022-11-24T16:51:26.143Z,95213.80
2022-11-24T16:54:00.168Z,95214.40
2022-11-24T16:56:31.051Z,95216.80
2022-11-24T16:58:57.641Z,95224.00
2022-11-24T17:01:25.887Z,95223.20
2022-11-24T17:03:52.881Z,95225.20
2022-11-24T17:06:19.634Z,95230.40
2022-11-24T17:08:47.501Z,95230.00
2022-11-24T17:11:24.384Z,95233.20
2022-11-24T17:13:52.536Z,95236.60
2022-11-24T17:16:24.895Z,95237.80
2022-11-24T17:18:52.342Z,95235.20
2022-11-24T17:21:22.079Z,95231.60
2022-11-24T17:23:59.888Z,95235.40
2022-11-24T17:26:27.801Z,95236.00
2022-11-24T17:28:56.031Z,95236.40
2022-11-24T17:31:25.502Z,95236.00
2022-11-24T17:33:57.982Z,95231.40
2022-11-24T17:36:25.425Z,95237.20
2022-11-24T17:38:52.279Z,95242.80
2022-11-24T17:41:20.427Z,95240.00
2022-11-24T17:43:58.427Z,95243.60
2022-11-24T17:46:27.410Z,95236.80
2022-11-24T17:48:54.392Z,95235.60
2022-11-24T17:51:24.790Z,95233.60
2022-11-24T17:53:53.943Z,95233.60
2022-11-24T17:56:24.461Z,95231.40
2022-11-24T17:58:57.580Z,95230.80
2022-11-24T18:01:26.631Z,95227.20
2022-11-24T18:03:54.201Z,95229.20
2022-11-24T18:06:25.300Z,95230.00
2022-11-24T18:08:54.008Z,95226.60
2022-11-24T18:11:32.457Z,95226.40
2022-11-24T18:14:02.998Z,95231.40
2022-11-24T18:16:34.537Z,95231.20
2022-11-24T18:19:09.163Z,95234.60
2022-11-24T18:21:40.799Z,95231.00
2022-11-24T18:24:12.198Z,95232.20
2022-11-24T18:26:40.887Z,95229.60
2022-11-24T18:29:08.416Z,95227.40
2022-11-24T18:31:35.933Z,95233.80
2022-11-24T18:34:05.322Z,95234.60
2022-11-24T18:36:33.272Z,95239.80
2022-11-24T18:39:08.793Z,95236.80
2022-11-24T18:41:36.405Z,95235.60
2022-11-24T18:44:07.819Z,95234.40
2022-11-24T18:46:35.919Z,95238.20
2022-11-24T18:49:02.495Z,95242.60
2022-11-24T18:51:29.919Z,95243.20
2022-11-24T18:53:59.255Z,95245.00
2022-11-24T18:56:26.662Z,95240.40
2022-11-24T18:58:55.473Z,95240.80
2022-11-24T19:01:26.743Z,95235.60
2022-11-24T19:03:56.686Z,95231.80
2022-11-24T19:06:36.472Z,95228.80
2022-11-24T19:09:08.397Z,95231.80
2022-11-24T19:11:38.599Z,95231.20
2022-11-24T19:14:08.968Z,95233.80
2022-11-24T19:16:36.222Z,95229.40
2022-11-24T19:19:03.758Z,95233.60
2022-11-24T19:21:33.519Z,95235.40
2022-11-24T19:24:04.988Z,95236.60
2022-11-24T19:26:35.585Z,95231.20
2022-11-24T19:29:03.803Z,95234.80
2022-11-24T19:31:30.783Z,95229.20
2022-11-24T19:33:59.902Z,95229.60
2022-11-24T19:36:26.694Z,95226.80
2022-11-24T19:38:56.883Z,95220.40
2022-11-24T19:41:30.154Z,95222.20
2022-11-24T19:43:58.748Z,95228.60
2022-11-24T19:46:29.484Z,95227.40
2022-11-24T19:48:59.965Z,95230.80
2022-11-24T19:51:34.314Z,95236.40
2022-11-24T19:54:02.299Z,95237.20
2022-11-24T19:56:34.783Z,95236.40
2022-11-24T19:59:04.091Z,95244.20
2022-11-24T20:01:34.553Z,95244.60
2022-11-24T20:04:05.567Z,95242.60
2022-11-24T20:06:43.492Z,95242.20
2022-11-24T20:09:14.425Z,95245.00
2022-11-24T20:11:42.369Z,95243.40
2022-11-24T20:14:13.295Z,95249.80
2022-11-24T20:16:41.035Z,95251.20
2022-11-24T20:19:12.423Z,95248.60
2022-11-24T20:21:41.537Z,95250.60
2022-11-24T20:24:15.678Z,95248.40
2022-11-24T20:26:49.982Z,95249.20
2022-11-24T20:29:17.274Z,95252.00
2022-11-24T20:31:56.946Z,95246.80
2022-11-24T20:34:24.659Z,95246.60
2022-11-24T20:36:53.073Z,95248.40
2022-11-24T20:39:26.229Z,95252.40
2022-11-24T20:41:54.975Z,95253.00
2022-11-24T20:44:23.281Z,95247.00
2022-11-24T20:46:49.960Z,95241.20
2022-11-24T20:49:20.728Z,95241.00
2022-11-24T20:51:47.925Z,95238.00
2022-11-24T20:54:17.434Z,95240.20
2022-11-24T20:56:46.385Z,95238.40
2022-11-24T20:59:16.814Z,95237.40
2022-11-24T21:01:46.113Z,95242.80
2022-11-24T21:04:21.411Z,95243.60
2022-11-24T21:06:48.344Z,95237.00
2022-11-24T21:09:15.033Z,95240.80
2022-11-24T21:11:41.905Z,95230.20
2022-11-24T21:14:10.408Z,95229.20
2022-11-24T21:16:40.158Z,95226.20
2022-11-24T21:19:11.807Z,95226.00
2022-11-24T21:21:41.051Z,95223.80
2022-11-24T21:24:15.734Z,95220.40
2022-11-24T21:26:47.694Z,95222.80
2022-11-24T21:29:22.441Z,95226.40
2022-11-24T21:31:49.435Z,95226.20
2022-11-24T21:34:18.950Z,95225.20
2022-11-24T21:36:46.268Z,95223.20
2022-11-24T21:39:14.828Z,95223.20
2022-11-24T21:41:42.695Z,95221.00
2022-11-24T21:44:12.482Z,95219.20
2022-11-24T21:46:44.174Z,95219.40
2022-11-24T21:49:13.191Z,95221.80
2022-11-24T21:51:40.098Z,95221.60
2022-11-24T21:54:07.025Z,95225.00
2022-11-24T21:56:33.677Z,95225.40
2022-11-24T21:59:00.330Z,95225.80
2022-11-24T22:01:28.512Z,95229.00
2022-11-24T22:03:55.590Z,95230.20
2022-11-24T22:06:22.529Z,95230.60
2022-11-24T22:08:49.759Z,95231.20
2022-11-24T22:11:22.905Z,95234.80
2022-11-24T22:13:51.082Z,95237.40
2022-11-24T22:16:23.849Z,95242.60
2022-11-24T22:18:51.163Z,95241.60
2022-11-24T22:21:30.184Z,95243.20
2022-11-24T22:23:57.008Z,95241.80
2022-11-24T22:26:25.642Z,95239.20
2022-11-24T22:28:54.288Z,95237.40
2022-11-24T22:31:28.043Z,95231.20
2022-11-24T22:33:56.246Z,95226.40
2022-11-24T22:36:26.325Z,95227.20
2022-11-24T22:38:59.478Z,95226.80
2022-11-24T22:41:26.155Z,95225.80
2022-11-24T22:43:54.405Z,95226.40
2022-11-24T22:46:26.215Z,95228.60
2022-11-24T22:48:54.709Z,95226.40
2022-11-24T22:51:25.665Z,95226.00
2022-11-24T22:53:55.344Z,95227.60
2022-11-24T22:56:23.131Z,95230.60
2022-11-24T22:58:50.511Z,95236.00
2022-11-24T23:01:24.068Z,95231.80
2022-11-24T23:03:54.540Z,95235.20
2022-11-24T23:06:27.723Z,95231.80
2022-11-24T23:08:55.279Z,95233.20
2022-11-24T23:11:34.900Z,95234.20
2022-11-24T23:14:08.778Z,95231.20
2022-11-24T23:16:35.506Z,95231.20
2022-11-24T23:19:02.270Z,95233.40
2022-11-24T23:21:33.002Z,95230.20
2022-11-24T23:24:02.591Z,95229.40
2022-11-24T23:26:33.831Z,95232.40
2022-11-24T23:29:00.773Z,95231.60
2022-11-24T23:31:28.962Z,95228.00
2022-11-24T23:34:01.937Z,95229.60
2022-11-24T23:36:29.745Z,95219.00
2022-11-24T23:39:02.180Z,95221.20
2022-11-24T23:41:30.615Z,95214.40
2022-11-24T23:43:57.557Z,95218.60
2022-11-24T23:46:27.229Z,95218.20
2022-11-24T23:48:55.464Z,95214.00
2022-11-24T23:51:26.330Z,95213.40
2022-11-24T23:53:54.244Z,95218.20
2022-11-24T23:56:24.825Z,95220.00
2022-11-24T23:58:51.980Z,95220.00
